Burkhardt, Wisconsin
Current Conditions -  °F | °C
As of 2:11 PM on Friday 31 Oct 2014 (Local Time) from K21D Reporting Station
Clear Clear  
Wind Chill: 31°   Ceiling: Unl
Heat Index: 37°   Visibility: 10mi
Dew Point: 21°   Wind: 9mph
Humidity: 52%   Direction: 320°NW
Pressure: 30.51"   Gusts: NA
Location:  44.9743°N, 92.6899°W
Report Text: K21D 311911Z AUTO 32008KT 10SM CLR 03/M06 A3051 RMK AO2
Loading
Personal Weather Stations






























Interactive Weather Map
Tropical Storm Tracking
New forecast layout! Learn more

10-Day Weather Forecast

Advertisements
Track Severe Weather on mobile